createdAt,value
2023-02-04T00:00:07.787Z,97734.19
2023-02-04T00:02:34.909Z,97733.50
2023-02-04T00:05:01.942Z,97735.69
2023-02-04T00:07:28.887Z,97729.78
2023-02-04T00:09:55.859Z,97737.53
2023-02-04T00:12:23.372Z,97725.31
2023-02-04T00:14:50.429Z,97727.03
2023-02-04T00:17:17.354Z,97725.44
2023-02-04T00:19:44.269Z,97717.72
2023-02-04T00:22:11.164Z,97724.34
2023-02-04T00:24:38.586Z,97716.06
2023-02-04T00:27:07.097Z,97717.94
2023-02-04T00:29:34.373Z,97709.97
2023-02-04T00:32:01.551Z,97711.34
2023-02-04T00:34:28.552Z,97706.25
2023-02-04T00:36:55.438Z,97702.78
2023-02-04T00:39:22.455Z,97705.78
2023-02-04T00:41:49.414Z,97700.44
2023-02-04T00:44:16.421Z,97697.56
2023-02-04T00:46:43.379Z,97692.19
2023-02-04T00:49:11.016Z,97687.44
2023-02-04T00:51:39.799Z,97680.38
2023-02-04T00:54:07.964Z,97678.78
2023-02-04T00:56:35.223Z,97675.59
2023-02-04T00:59:02.862Z,97670.25
2023-02-04T01:01:30.078Z,97673.84
2023-02-04T01:03:57.069Z,97665.81
2023-02-04T01:06:24.243Z,97663.66
2023-02-04T01:08:51.554Z,97661.41
2023-02-04T01:11:19.519Z,97655.81
2023-02-04T01:13:46.688Z,97659.41
2023-02-04T01:16:14.829Z,97654.94
2023-02-04T01:18:43.944Z,97647.31
2023-02-04T01:21:10.967Z,97642.00
2023-02-04T01:23:38.049Z,97650.09
2023-02-04T01:26:05.189Z,97645.63
2023-02-04T01:28:32.401Z,97643.00
2023-02-04T01:30:59.385Z,97641.41
2023-02-04T01:33:26.297Z,97637.50
2023-02-04T01:35:53.253Z,97634.88
2023-02-04T01:38:20.103Z,97636.66
2023-02-04T01:40:48.217Z,97638.50
2023-02-04T01:43:17.964Z,97626.41
2023-02-04T01:45:46.671Z,97620.00
2023-02-04T01:48:20.372Z,97609.31
2023-02-04T01:50:52.691Z,97613.19
2023-02-04T01:53:23.241Z,97607.72
2023-02-04T01:55:51.512Z,97617.09
2023-02-04T01:58:19.062Z,97599.09
2023-02-04T02:00:46.343Z,97597.56
2023-02-04T02:03:13.529Z,97600.22
2023-02-04T02:05:46.558Z,97599.28
2023-02-04T02:08:14.935Z,97594.78
2023-02-04T02:10:45.003Z,97599.59
2023-02-04T02:13:15.276Z,97597.38
2023-02-04T02:15:42.844Z,97588.38
2023-02-04T02:18:10.507Z,97580.31
2023-02-04T02:20:37.972Z,97576.22
2023-02-04T02:23:13.694Z,97576.53
2023-02-04T02:25:40.859Z,97570.88
2023-02-04T02:28:13.404Z,97563.63
2023-02-04T02:30:41.604Z,97558.66
2023-02-04T02:33:08.919Z,97558.75
2023-02-04T02:35:35.936Z,97564.25
2023-02-04T02:38:03.027Z,97557.72
2023-02-04T02:40:30.261Z,97548.06
2023-02-04T02:42:57.336Z,97542.69
2023-02-04T02:45:27.467Z,97537.00
2023-02-04T02:47:56.401Z,97524.13
2023-02-04T02:50:26.288Z,97532.84
2023-02-04T02:52:54.769Z,97535.00
2023-02-04T02:55:27.751Z,97527.25
2023-02-04T02:57:56.714Z,97522.81
2023-02-04T03:00:28.690Z,97521.13
2023-02-04T03:03:16.349Z,97512.75
2023-02-04T03:05:46.973Z,97508.16
2023-02-04T03:08:16.591Z,97502.66
2023-02-04T03:10:44.598Z,97501.81
2023-02-04T03:13:14.982Z,97499.34
2023-02-04T03:15:44.198Z,97489.41
2023-02-04T03:18:12.636Z,97486.72
2023-02-04T03:20:40.609Z,97481.53
2023-02-04T03:23:07.662Z,97481.22
2023-02-04T03:25:35.285Z,97487.31
2023-02-04T03:28:02.509Z,97484.03
2023-02-04T03:30:29.982Z,97488.81
2023-02-04T03:32:58.172Z,97484.25
2023-02-04T03:35:25.434Z,97486.31
2023-02-04T03:37:52.870Z,97486.00
2023-02-04T03:40:19.973Z,97482.88
2023-02-04T03:42:47.057Z,97478.13
2023-02-04T03:45:14.202Z,97483.78
2023-02-04T03:47:41.113Z,97476.38
2023-02-04T03:50:08.413Z,97478.78
2023-02-04T03:52:35.420Z,97460.16
2023-02-04T03:55:02.365Z,97460.72
2023-02-04T03:57:29.334Z,97458.19
2023-02-04T03:59:56.231Z,97455.56
2023-02-04T04:02:23.202Z,97449.03
2023-02-04T04:04:50.154Z,97450.13
2023-02-04T04:07:17.126Z,97443.34
2023-02-04T04:09:44.059Z,97432.81
2023-02-04T04:12:10.988Z,97427.63
2023-02-04T04:14:37.846Z,97420.31
2023-02-04T04:17:04.824Z,97409.78
2023-02-04T04:19:32.715Z,97416.91
2023-02-04T04:21:59.687Z,97404.53
2023-02-04T04:24:26.704Z,97403.69
2023-02-04T04:26:53.592Z,97399.84
2023-02-04T04:29:20.481Z,97391.34
2023-02-04T04:31:47.502Z,97388.47
2023-02-04T04:34:14.509Z,97394.88
2023-02-04T04:36:41.402Z,97389.16
2023-02-04T04:39:08.352Z,97385.00
2023-02-04T04:41:35.300Z,97381.06
2023-02-04T04:44:02.219Z,97390.59
2023-02-04T04:46:29.284Z,97386.03
2023-02-04T04:48:56.232Z,97380.97
2023-02-04T04:51:23.256Z,97380.75
2023-02-04T04:53:51.268Z,97370.28
2023-02-04T04:56:19.375Z,97370.81
2023-02-04T04:58:46.255Z,97372.78
2023-02-04T05:01:13.194Z,97366.06
2023-02-04T05:03:40.090Z,97362.84
2023-02-04T05:06:07.176Z,97362.63
2023-02-04T05:08:35.919Z,97361.19
2023-02-04T05:11:03.977Z,97358.69
2023-02-04T05:13:30.963Z,97356.34
2023-02-04T05:15:57.945Z,97362.94
2023-02-04T05:18:24.897Z,97364.28
2023-02-04T05:20:51.814Z,97354.56
2023-02-04T05:23:18.727Z,97354.97
2023-02-04T05:25:45.608Z,97352.59
2023-02-04T05:28:12.565Z,97349.59
2023-02-04T05:30:39.524Z,97354.97
2023-02-04T05:33:06.436Z,97357.59
2023-02-04T05:35:33.422Z,97344.81
2023-02-04T05:38:00.303Z,97339.66
2023-02-04T05:40:27.266Z,97342.66
2023-02-04T05:42:54.194Z,97340.47
2023-02-04T05:45:21.058Z,97341.19
2023-02-04T05:47:47.968Z,97335.31
2023-02-04T05:50:15.273Z,97336.44
2023-02-04T05:52:42.137Z,97337.59
2023-02-04T05:55:12.482Z,97330.97
2023-02-04T05:57:42.622Z,97337.91
2023-02-04T06:00:11.492Z,97337.91
2023-02-04T06:02:41.428Z,97331.16
2023-02-04T06:05:08.795Z,97337.47
2023-02-04T06:07:35.746Z,97328.25
2023-02-04T06:10:02.662Z,97329.09
2023-02-04T06:12:29.591Z,97339.13
2023-02-04T06:14:56.560Z,97340.16
2023-02-04T06:17:23.507Z,97345.47
2023-02-04T06:19:50.418Z,97334.47
2023-02-04T06:22:17.572Z,97337.06
2023-02-04T06:24:46.613Z,97336.06
2023-02-04T06:27:14.322Z,97327.94
2023-02-04T06:29:41.250Z,97331.78
2023-02-04T06:32:08.094Z,97328.59
2023-02-04T06:34:34.981Z,97322.38
2023-02-04T06:37:01.854Z,97325.97
2023-02-04T06:39:28.759Z,97327.53
2023-02-04T06:41:55.650Z,97328.47
2023-02-04T06:44:22.570Z,97327.75
2023-02-04T06:46:49.527Z,97320.81
2023-02-04T06:49:16.500Z,97313.13
2023-02-04T06:51:43.370Z,97319.34
2023-02-04T06:54:10.343Z,97320.09
2023-02-04T06:56:37.794Z,97313.56
2023-02-04T06:59:04.686Z,97319.38
2023-02-04T07:01:31.987Z,97309.72
2023-02-04T07:03:58.837Z,97308.41
2023-02-04T07:06:25.794Z,97305.25
2023-02-04T07:08:52.703Z,97306.94
2023-02-04T07:11:19.835Z,97305.47
2023-02-04T07:13:46.730Z,97302.69
2023-02-04T07:16:13.665Z,97310.28
2023-02-04T07:18:40.842Z,97303.16
2023-02-04T07:21:07.743Z,97303.16
2023-02-04T07:23:34.585Z,97303.63
2023-02-04T07:26:01.961Z,97302.38
2023-02-04T07:28:29.028Z,97303.41
2023-02-04T07:30:56.076Z,97295.41
2023-02-04T07:33:23.036Z,97291.53
2023-02-04T07:35:49.915Z,97288.06
2023-02-04T07:38:16.766Z,97289.84
2023-02-04T07:40:43.697Z,97288.50
2023-02-04T07:43:10.867Z,97286.78
2023-02-04T07:45:38.609Z,97290.16
2023-02-04T07:48:05.865Z,97289.28
2023-02-04T07:50:32.965Z,97290.84
2023-02-04T07:53:00.018Z,97286.91
2023-02-04T07:55:26.930Z,97280.72
2023-02-04T07:57:54.008Z,97285.84
2023-02-04T08:00:21.481Z,97279.13
2023-02-04T08:02:48.559Z,97274.16
2023-02-04T08:05:15.772Z,97278.84
2023-02-04T08:07:42.768Z,97283.25
2023-02-04T08:10:10.970Z,97278.28
2023-02-04T08:12:38.362Z,97279.63
2023-02-04T08:15:07.844Z,97273.84
2023-02-04T08:17:35.382Z,97270.63
2023-02-04T08:20:02.851Z,97273.44
2023-02-04T08:22:29.851Z,97273.72
2023-02-04T08:24:56.823Z,97266.84
2023-02-04T08:27:23.709Z,97270.97
2023-02-04T08:29:50.554Z,97272.22
2023-02-04T08:32:17.477Z,97274.88
2023-02-04T08:34:44.455Z,97269.44
2023-02-04T08:37:11.369Z,97269.84
2023-02-04T08:39:38.590Z,97269.59
2023-02-04T08:42:05.544Z,97268.09
2023-02-04T08:44:32.459Z,97270.25
2023-02-04T08:46:59.498Z,97265.91
2023-02-04T08:49:26.476Z,97263.66
2023-02-04T08:51:53.361Z,97261.53
2023-02-04T08:54:20.380Z,97265.56
2023-02-04T08:56:47.308Z,97263.84
2023-02-04T08:59:14.210Z,97267.34
2023-02-04T09:01:41.127Z,97267.09
2023-02-04T09:04:08.380Z,97272.06
2023-02-04T09:06:35.288Z,97263.97
2023-02-04T09:09:02.394Z,97269.69
2023-02-04T09:11:29.285Z,97257.72
2023-02-04T09:13:57.506Z,97257.19
2023-02-04T09:16:24.480Z,97254.94
2023-02-04T09:18:51.465Z,97258.66
2023-02-04T09:21:18.443Z,97249.16
2023-02-04T09:23:46.875Z,97253.88
2023-02-04T09:26:13.826Z,97238.22
2023-02-04T09:28:40.745Z,97232.75
2023-02-04T09:31:07.852Z,97235.91
2023-02-04T09:33:35.511Z,97232.94
2023-02-04T09:36:02.813Z,97225.38
2023-02-04T09:38:29.758Z,97225.25
2023-02-04T09:41:01.437Z,97233.44
2023-02-04T09:43:31.867Z,97223.78
2023-02-04T10:17:22.127Z,97193.81
2023-02-04T10:19:49.748Z,97188.75
2023-02-04T10:22:19.823Z,97187.47
2023-02-04T10:24:46.974Z,97182.88
2023-02-04T10:27:17.998Z,97176.38
2023-02-04T10:29:58.737Z,97176.13
2023-02-04T10:32:27.680Z,97172.28
2023-02-04T10:34:59.519Z,97173.63
2023-02-04T10:37:26.775Z,97173.78
2023-02-04T10:39:54.226Z,97167.75
2023-02-04T10:42:27.313Z,97164.75
2023-02-04T10:44:54.595Z,97169.69
2023-02-04T10:47:24.819Z,97164.75
2023-02-04T10:50:06.382Z,97171.88
2023-02-04T10:52:39.644Z,97169.78
2023-02-04T10:55:13.582Z,97165.88
2023-02-04T10:57:42.539Z,97161.50
2023-02-04T11:00:23.906Z,97167.03
2023-02-04T11:02:58.895Z,97164.91
2023-02-04T11:05:31.603Z,97155.19
2023-02-04T11:07:58.876Z,97153.38
2023-02-04T11:10:31.651Z,97146.84
2023-02-04T11:12:58.649Z,97147.66
2023-02-04T11:15:50.992Z,97147.66
2023-02-04T11:18:21.010Z,97151.94
2023-02-04T11:20:49.806Z,97148.03
2023-02-04T11:23:30.883Z,97154.91
2023-02-04T11:26:22.975Z,97149.50
2023-02-04T11:28:51.926Z,97157.16
2023-02-04T11:31:21.719Z,97152.44
2023-02-04T11:33:50.842Z,97147.72
2023-02-04T11:36:18.225Z,97140.16
2023-02-04T11:38:50.249Z,97141.72
2023-02-04T11:41:24.968Z,97144.31
2023-02-04T11:43:56.291Z,97140.41
2023-02-04T11:46:26.205Z,97140.06
2023-02-04T11:48:55.056Z,97137.13
2023-02-04T11:51:32.662Z,97133.94
2023-02-04T11:53:59.918Z,97137.34
2023-02-04T11:56:29.946Z,97134.03
2023-02-04T11:58:58.874Z,97129.06
2023-02-04T12:01:34.746Z,97127.06
2023-02-04T12:04:04.940Z,97123.50
2023-02-04T12:06:34.392Z,97126.22
2023-02-04T12:09:17.611Z,97131.06
2023-02-04T12:11:55.883Z,97126.22
2023-02-04T12:14:29.579Z,97124.31
2023-02-04T12:16:56.546Z,97128.91
2023-02-04T12:19:23.686Z,97122.91
2023-02-04T12:21:50.592Z,97128.84
2023-02-04T12:24:17.506Z,97124.59
2023-02-04T12:26:44.565Z,97124.38
2023-02-04T12:29:11.440Z,97126.97
2023-02-04T12:31:38.426Z,97119.06
2023-02-04T12:34:05.347Z,97121.19
2023-02-04T12:36:32.227Z,97122.47
2023-02-04T12:38:59.142Z,97119.19
2023-02-04T12:41:26.661Z,97127.44
2023-02-04T12:43:55.762Z,97128.03
2023-02-04T12:46:22.693Z,97134.41
2023-02-04T12:48:49.682Z,97132.97
2023-02-04T12:51:16.659Z,97137.94
2023-02-04T12:53:43.624Z,97145.25
2023-02-04T12:56:10.486Z,97153.25
2023-02-04T12:58:37.421Z,97167.84
2023-02-04T13:01:05.226Z,97162.25
2023-02-04T13:03:32.953Z,97158.81
2023-02-04T13:06:00.375Z,97163.41
2023-02-04T13:08:27.299Z,97156.69
2023-02-04T13:10:54.352Z,97160.69
2023-02-04T13:13:22.518Z,97155.56
2023-02-04T13:15:50.028Z,97162.91
2023-02-04T13:18:18.511Z,97159.81
2023-02-04T13:20:46.247Z,97164.28
2023-02-04T13:23:14.167Z,97163.88
2023-02-04T13:25:41.082Z,97164.25
2023-02-04T13:28:08.024Z,97165.19
2023-02-04T13:30:34.950Z,97162.69
2023-02-04T13:33:01.898Z,97164.72
2023-02-04T13:35:28.867Z,97167.03
2023-02-04T13:37:56.575Z,97162.31
2023-02-04T13:40:23.641Z,97167.50
2023-02-04T13:42:50.582Z,97172.47
2023-02-04T13:45:18.993Z,97178.16
2023-02-04T13:47:48.110Z,97172.91
2023-02-04T13:50:16.968Z,97172.31
2023-02-04T13:52:43.895Z,97186.41
2023-02-04T13:55:10.824Z,97181.69
2023-02-04T13:57:38.103Z,97181.69
2023-02-04T14:00:07.161Z,97185.22
2023-02-04T14:02:39.506Z,97179.53
2023-02-04T14:05:07.182Z,97185.78
2023-02-04T14:07:34.305Z,97189.75
2023-02-04T14:10:01.210Z,97191.09
2023-02-04T14:12:28.133Z,97188.38
2023-02-04T14:14:55.105Z,97180.06
2023-02-04T14:17:21.996Z,97189.63
2023-02-04T14:19:49.012Z,97189.50
2023-02-04T14:22:16.135Z,97188.78
2023-02-04T14:24:43.219Z,97195.13
2023-02-04T14:27:11.061Z,97194.88
2023-02-04T14:29:37.955Z,97193.13
2023-02-04T14:32:05.103Z,97195.34
2023-02-04T14:34:32.225Z,97201.72
2023-02-04T14:36:59.159Z,97203.09
2023-02-04T14:39:26.148Z,97202.91
2023-02-04T14:41:53.128Z,97206.44
2023-02-04T14:44:20.956Z,97210.00
2023-02-04T14:46:49.082Z,97211.06
2023-02-04T14:49:17.467Z,97220.59
2023-02-04T14:51:44.673Z,97221.25
2023-02-04T14:54:11.639Z,97231.06
2023-02-04T14:56:38.697Z,97223.44
2023-02-04T14:59:05.923Z,97231.00
2023-02-04T15:01:32.886Z,97235.84
2023-02-04T15:03:59.880Z,97230.69
2023-02-04T15:06:26.812Z,97230.50
2023-02-04T15:08:53.734Z,97232.19
2023-02-04T15:11:20.710Z,97230.75
2023-02-04T15:13:47.606Z,97238.00
2023-02-04T15:16:15.039Z,97245.03
2023-02-04T15:18:42.801Z,97243.38
2023-02-04T15:21:10.273Z,97249.41
2023-02-04T15:26:39.789Z,97252.91
2023-02-04T15:29:07.051Z,97261.63
2023-02-04T15:32:10.946Z,97257.91
2023-02-04T15:35:15.357Z,97263.38
2023-02-04T15:38:00.791Z,97271.78
2023-02-04T15:40:46.468Z,97274.47
2023-02-04T15:43:22.343Z,97273.81
2023-02-04T15:45:49.467Z,97275.25
2023-02-04T15:48:16.792Z,97272.97
2023-02-04T15:50:44.114Z,97270.66
2023-02-04T15:53:11.055Z,97282.06
2023-02-04T15:55:37.961Z,97278.94
2023-02-04T15:58:05.433Z,97279.44
2023-02-04T16:00:32.571Z,97279.44
2023-02-04T16:02:59.893Z,97282.13
2023-02-04T16:05:26.888Z,97281.38
2023-02-04T16:07:53.766Z,97278.09
2023-02-04T16:10:20.895Z,97280.97
2023-02-04T16:12:47.910Z,97289.22
2023-02-04T16:15:15.185Z,97283.41
2023-02-04T16:17:42.216Z,97293.84
2023-02-04T16:20:10.551Z,97296.59
2023-02-04T16:22:37.442Z,97307.69
2023-02-04T16:25:04.870Z,97311.47
2023-02-04T16:27:32.053Z,97308.34
2023-02-04T16:29:59.136Z,97313.59
2023-02-04T16:32:26.729Z,97318.03
2023-02-04T16:34:56.874Z,97314.53
2023-02-04T16:37:24.044Z,97313.69
2023-02-04T16:39:52.243Z,97311.22
2023-02-04T16:42:20.292Z,97312.34
2023-02-04T16:44:47.251Z,97314.09
2023-02-04T16:47:14.478Z,97309.84
2023-02-04T16:49:41.475Z,97315.19
2023-02-04T16:52:08.478Z,97314.47
2023-02-04T16:54:35.517Z,97321.50
2023-02-04T16:57:03.853Z,97323.03
2023-02-04T16:59:31.980Z,97321.28
2023-02-04T17:02:00.719Z,97324.69
2023-02-04T17:04:28.466Z,97320.47
2023-02-04T17:06:55.615Z,97328.03
2023-02-04T17:09:22.670Z,97327.38
2023-02-04T17:11:49.627Z,97324.97
2023-02-04T17:14:16.548Z,97324.97
2023-02-04T17:16:45.275Z,97323.03
2023-02-04T17:19:13.746Z,97334.09
2023-02-04T17:21:41.050Z,97335.31
2023-02-04T17:24:08.977Z,97339.38
2023-02-04T17:26:37.736Z,97354.97
2023-02-04T17:29:12.203Z,97350.78
2023-02-04T17:31:39.907Z,97354.25
2023-02-04T17:34:07.120Z,97359.19
2023-02-04T17:36:34.263Z,97352.56
2023-02-04T17:39:01.537Z,97362.81
2023-02-04T17:41:28.580Z,97363.69
2023-02-04T17:43:55.598Z,97365.66
2023-02-04T17:46:22.703Z,97365.84
2023-02-04T17:48:49.616Z,97364.84
2023-02-04T17:51:16.930Z,97371.81
2023-02-04T17:53:44.042Z,97375.22
2023-02-04T17:56:14.959Z,97383.09
2023-02-04T17:58:42.451Z,97386.50
2023-02-04T18:01:19.003Z,97384.84
2023-02-04T18:03:48.733Z,97391.47
2023-02-04T18:06:22.835Z,97382.34
2023-02-04T18:08:51.956Z,97388.44
2023-02-04T18:11:27.936Z,97393.06
2023-02-04T18:14:00.572Z,97377.75
2023-02-04T18:16:30.709Z,97384.94
2023-02-04T18:19:18.382Z,97399.47
2023-02-04T18:21:46.762Z,97392.50
2023-02-04T18:24:39.693Z,97402.91
2023-02-04T18:27:16.858Z,97402.25
2023-02-04T18:29:46.885Z,97398.19
2023-02-04T18:32:16.361Z,97395.63
2023-02-04T18:34:48.810Z,97403.47
2023-02-04T18:37:30.931Z,97402.63
2023-02-04T18:40:18.487Z,97413.78
2023-02-04T18:42:46.539Z,97407.97
2023-02-04T18:45:25.135Z,97416.16
2023-02-04T18:47:57.427Z,97414.50
2023-02-04T18:50:30.043Z,97420.50
2023-02-04T18:53:13.624Z,97418.00
2023-02-04T18:55:49.211Z,97415.69
2023-02-04T18:58:35.852Z,97416.44
2023-02-04T19:01:16.930Z,97421.13
2023-02-04T19:03:50.199Z,97411.91
2023-02-04T19:06:33.704Z,97423.22
2023-02-04T19:09:27.428Z,97415.41
2023-02-04T19:11:56.708Z,97419.63
2023-02-04T19:14:37.654Z,97420.66
2023-02-04T19:17:16.977Z,97421.56
2023-02-04T19:19:46.241Z,97419.25
2023-02-04T19:22:36.174Z,97423.59
2023-02-04T19:25:32.723Z,97422.56
2023-02-04T19:28:02.052Z,97429.66
2023-02-04T19:30:29.110Z,97429.00
2023-02-04T19:32:57.708Z,97435.91
2023-02-04T19:35:35.557Z,97428.28
2023-02-04T19:38:26.641Z,97427.50
2023-02-04T19:40:53.597Z,97444.72
2023-02-04T19:43:35.568Z,97442.81
2023-02-04T19:46:15.437Z,97442.81
2023-02-04T19:48:44.233Z,97442.97
2023-02-04T19:51:23.831Z,97442.97
2023-02-04T19:53:52.360Z,97450.81
2023-02-04T19:56:37.661Z,97468.88
2023-02-04T19:59:39.992Z,97466.38
2023-02-04T20:02:06.885Z,97466.19
2023-02-04T20:04:41.551Z,97467.94
2023-02-04T20:07:16.156Z,97467.84
2023-02-04T20:09:43.281Z,97467.84
2023-02-04T20:12:16.353Z,97472.47
2023-02-04T20:14:47.138Z,97468.03
2023-02-04T20:17:20.157Z,97469.03
2023-02-04T20:19:47.838Z,97466.72
2023-02-04T20:22:17.606Z,97472.03
2023-02-04T20:24:50.068Z,97457.41
2023-02-04T20:27:21.659Z,97483.94
2023-02-04T20:29:51.164Z,97470.88
2023-02-04T20:32:28.330Z,97478.59
2023-02-04T20:35:07.326Z,97471.88
2023-02-04T20:37:34.646Z,97476.22
2023-02-04T20:40:23.072Z,97474.47
2023-02-04T20:43:17.384Z,97476.28
2023-02-04T20:46:00.242Z,97483.19
2023-02-04T20:48:36.151Z,97482.25
2023-02-04T20:51:04.873Z,97490.19
2023-02-04T20:53:49.706Z,97478.97
2023-02-04T20:56:25.450Z,97489.16
2023-02-04T20:59:27.644Z,97487.94
2023-02-04T21:01:56.155Z,97490.81
2023-02-04T21:04:38.037Z,97488.00
2023-02-04T21:07:18.572Z,97484.78
2023-02-04T21:09:46.097Z,97491.84
2023-02-04T21:12:13.010Z,97491.69
2023-02-04T21:14:40.074Z,97495.09
2023-02-04T21:17:07.103Z,97495.94
2023-02-04T21:19:35.403Z,97506.25
2023-02-04T21:22:02.624Z,97505.41
2023-02-04T21:24:33.345Z,97501.09
2023-02-04T21:27:00.309Z,97510.63
2023-02-04T21:29:27.253Z,97503.00
2023-02-04T21:31:54.723Z,97516.59
2023-02-04T21:34:22.015Z,97518.47
2023-02-04T21:36:48.969Z,97513.31
2023-02-04T21:39:16.046Z,97513.31
2023-02-04T21:41:43.125Z,97518.66
2023-02-04T21:44:10.063Z,97513.50
2023-02-04T21:46:37.007Z,97516.94
2023-02-04T21:49:05.375Z,97531.53
2023-02-04T21:51:32.318Z,97521.22
2023-02-04T21:54:00.131Z,97521.38
2023-02-04T21:56:27.142Z,97523.81
2023-02-04T21:58:54.441Z,97517.88
2023-02-04T22:01:21.478Z,97514.31
2023-02-04T22:03:48.433Z,97533.19
2023-02-04T22:06:15.389Z,97536.59
2023-02-04T22:08:42.325Z,97533.19
2023-02-04T22:11:09.257Z,97545.16
2023-02-04T22:13:54.951Z,97540.84
2023-02-04T22:16:21.998Z,97534.66
2023-02-04T22:18:48.997Z,97541.50
2023-02-04T22:21:15.953Z,97543.06
2023-02-04T22:23:42.823Z,97545.75
2023-02-04T22:26:09.693Z,97530.91
2023-02-04T22:28:36.570Z,97526.63
2023-02-04T22:31:03.682Z,97535.25
2023-02-04T22:33:30.620Z,97535.34
2023-02-04T22:35:57.558Z,97529.44
2023-02-04T22:38:24.473Z,97531.25
2023-02-04T22:40:51.410Z,97539.81
2023-02-04T22:43:18.361Z,97542.59
2023-02-04T22:45:45.402Z,97544.25
2023-02-04T22:48:12.305Z,97539.41
2023-02-04T22:50:39.148Z,97539.41
2023-02-04T22:53:06.041Z,97554.22
2023-02-04T22:55:33.224Z,97546.56
2023-02-04T22:58:00.339Z,97557.13
2023-02-04T23:00:27.268Z,97546.91
2023-02-04T23:02:54.113Z,97552.97
2023-02-04T23:05:21.053Z,97562.63
2023-02-04T23:07:47.986Z,97562.22
2023-02-04T23:10:15.029Z,97564.09
2023-02-04T23:12:42.013Z,97560.78
2023-02-04T23:15:12.276Z,97568.44
2023-02-04T23:17:39.956Z,97571.09
2023-02-04T23:20:07.470Z,97565.84
2023-02-04T23:22:34.452Z,97567.84
2023-02-04T23:25:01.336Z,97564.44
2023-02-04T23:27:28.304Z,97566.09
2023-02-04T23:29:55.261Z,97565.34
2023-02-04T23:32:23.476Z,97571.75
2023-02-04T23:34:50.312Z,97579.81
2023-02-04T23:37:17.193Z,97577.38
2023-02-04T23:39:44.098Z,97592.31
2023-02-04T23:42:16.889Z,97599.34
2023-02-04T23:44:43.816Z,97600.38
2023-02-04T23:47:10.794Z,97597.88
2023-02-04T23:49:37.777Z,97604.09
2023-02-04T23:52:05.804Z,97596.59
2023-02-04T23:54:32.686Z,97597.72
2023-02-04T23:57:00.153Z,97600.53
2023-02-04T23:59:27.117Z,97619.38
